sensor_id;sensor_type;location;lat;lon;timestamp;P1;durP1;ratioP1;P2;durP2;ratioP2
42200;SDS011;27869;51.442;7.540;2022-08-02T00:00:54;11.27;;;2.55;;
42200;SDS011;27869;51.442;7.540;2022-08-02T00:03:20;9.88;;;2.40;;
42200;SDS011;27869;51.442;7.540;2022-08-02T00:05:47;11.02;;;2.55;;
42200;SDS011;27869;51.442;7.540;2022-08-02T00:08:14;15.52;;;4.45;;
42200;SDS011;27869;51.442;7.540;2022-08-02T00:10:43;8.98;;;2.63;;
42200;SDS011;27869;51.442;7.540;2022-08-02T00:13:10;10.48;;;2.67;;
42200;SDS011;27869;51.442;7.540;2022-08-02T00:15:36;9.40;;;2.42;;
42200;SDS011;27869;51.442;7.540;2022-08-02T00:18:03;9.80;;;2.42;;
42200;SDS011;27869;51.442;7.540;2022-08-02T00:20:30;15.00;;;2.47;;
42200;SDS011;27869;51.442;7.540;2022-08-02T00:22:57;10.82;;;2.50;;
42200;SDS011;27869;51.442;7.540;2022-08-02T00:25:24;9.75;;;2.28;;
42200;SDS011;27869;51.442;7.540;2022-08-02T00:27:52;9.25;;;2.13;;
42200;SDS011;27869;51.442;7.540;2022-08-02T00:30:19;8.23;;;2.22;;
42200;SDS011;27869;51.442;7.540;2022-08-02T00:32:46;11.95;;;2.40;;
42200;SDS011;27869;51.442;7.540;2022-08-02T00:35:13;10.30;;;2.60;;
42200;SDS011;27869;51.442;7.540;2022-08-02T00:37:40;13.77;;;2.30;;
42200;SDS011;27869;51.442;7.540;2022-08-02T00:40:08;11.60;;;2.50;;
42200;SDS011;27869;51.442;7.540;2022-08-02T00:42:35;14.05;;;2.63;;
42200;SDS011;27869;51.442;7.540;2022-08-02T00:45:04;10.30;;;2.67;;
42200;SDS011;27869;51.442;7.540;2022-08-02T00:47:32;11.23;;;2.70;;
42200;SDS011;27869;51.442;7.540;2022-08-02T00:49:59;9.07;;;2.10;;
42200;SDS011;27869;51.442;7.540;2022-08-02T00:52:26;8.35;;;2.17;;
42200;SDS011;27869;51.442;7.540;2022-08-02T00:54:53;10.27;;;2.40;;
42200;SDS011;27869;51.442;7.540;2022-08-02T00:57:19;11.45;;;2.75;;
42200;SDS011;27869;51.442;7.540;2022-08-02T00:59:46;14.05;;;3.08;;
42200;SDS011;27869;51.442;7.540;2022-08-02T01:02:15;10.10;;;2.90;;
42200;SDS011;27869;51.442;7.540;2022-08-02T01:04:41;9.90;;;2.83;;
42200;SDS011;27869;51.442;7.540;2022-08-02T01:07:08;8.65;;;2.70;;
42200;SDS011;27869;51.442;7.540;2022-08-02T01:09:35;10.63;;;2.40;;
42200;SDS011;27869;51.442;7.540;2022-08-02T01:12:02;9.52;;;2.35;;
42200;SDS011;27869;51.442;7.540;2022-08-02T01:14:29;9.70;;;2.67;;
42200;SDS011;27869;51.442;7.540;2022-08-02T01:16:59;10.50;;;2.80;;
42200;SDS011;27869;51.442;7.540;2022-08-02T01:19:38;12.80;;;2.70;;
42200;SDS011;27869;51.442;7.540;2022-08-02T01:22:15;9.45;;;2.50;;
42200;SDS011;27869;51.442;7.540;2022-08-02T01:25:06;12.93;;;2.88;;
42200;SDS011;27869;51.442;7.540;2022-08-02T01:27:44;11.27;;;2.75;;
42200;SDS011;27869;51.442;7.540;2022-08-02T01:30:20;10.45;;;2.42;;
42200;SDS011;27869;51.442;7.540;2022-08-02T01:32:49;12.75;;;2.70;;
42200;SDS011;27869;51.442;7.540;2022-08-02T01:35:22;10.32;;;2.97;;
42200;SDS011;27869;51.442;7.540;2022-08-02T01:37:57;13.40;;;3.03;;
42200;SDS011;27869;51.442;7.540;2022-08-02T01:40:30;13.30;;;2.80;;
42200;SDS011;27869;51.442;7.540;2022-08-02T01:43:01;9.35;;;2.90;;
42200;SDS011;27869;51.442;7.540;2022-08-02T01:45:32;11.00;;;2.75;;
42200;SDS011;27869;51.442;7.540;2022-08-02T01:48:00;9.77;;;2.80;;
42200;SDS011;27869;51.442;7.540;2022-08-02T01:50:29;9.48;;;2.78;;
42200;SDS011;27869;51.442;7.540;2022-08-02T01:53:02;12.18;;;2.60;;
42200;SDS011;27869;51.442;7.540;2022-08-02T01:55:32;11.85;;;3.08;;
42200;SDS011;27869;51.442;7.540;2022-08-02T01:58:03;13.13;;;2.63;;
42200;SDS011;27869;51.442;7.540;2022-08-02T02:00:32;13.57;;;3.53;;
42200;SDS011;27869;51.442;7.540;2022-08-02T02:03:04;10.55;;;4.40;;
42200;SDS011;27869;51.442;7.540;2022-08-02T02:05:34;12.40;;;2.90;;
42200;SDS011;27869;51.442;7.540;2022-08-02T02:08:03;14.02;;;2.97;;
42200;SDS011;27869;51.442;7.540;2022-08-02T02:10:33;11.30;;;3.10;;
42200;SDS011;27869;51.442;7.540;2022-08-02T02:13:03;14.63;;;2.90;;
42200;SDS011;27869;51.442;7.540;2022-08-02T02:15:33;14.57;;;3.38;;
42200;SDS011;27869;51.442;7.540;2022-08-02T02:18:03;12.20;;;2.67;;
42200;SDS011;27869;51.442;7.540;2022-08-02T02:20:33;13.23;;;3.03;;
42200;SDS011;27869;51.442;7.540;2022-08-02T02:23:00;13.77;;;2.67;;
42200;SDS011;27869;51.442;7.540;2022-08-02T02:25:27;12.15;;;2.25;;
42200;SDS011;27869;51.442;7.540;2022-08-02T02:27:55;13.18;;;2.63;;
42200;SDS011;27869;51.442;7.540;2022-08-02T02:30:26;11.82;;;2.20;;
42200;SDS011;27869;51.442;7.540;2022-08-02T02:32:56;14.32;;;3.03;;
42200;SDS011;27869;51.442;7.540;2022-08-02T02:35:28;16.77;;;2.35;;
42200;SDS011;27869;51.442;7.540;2022-08-02T02:37:57;15.40;;;3.15;;
42200;SDS011;27869;51.442;7.540;2022-08-02T02:40:27;10.23;;;3.00;;
42200;SDS011;27869;51.442;7.540;2022-08-02T02:42:55;8.70;;;2.60;;
42200;SDS011;27869;51.442;7.540;2022-08-02T02:45:25;10.45;;;2.70;;
42200;SDS011;27869;51.442;7.540;2022-08-02T02:47:54;10.15;;;2.65;;
42200;SDS011;27869;51.442;7.540;2022-08-02T02:50:23;11.27;;;2.90;;
42200;SDS011;27869;51.442;7.540;2022-08-02T02:52:51;8.52;;;2.80;;
42200;SDS011;27869;51.442;7.540;2022-08-02T02:55:18;12.65;;;2.95;;
42200;SDS011;27869;51.442;7.540;2022-08-02T02:57:47;14.35;;;3.00;;
42200;SDS011;27869;51.442;7.540;2022-08-02T03:00:15;9.98;;;2.95;;
42200;SDS011;27869;51.442;7.540;2022-08-02T03:02:43;13.50;;;3.00;;
42200;SDS011;27869;51.442;7.540;2022-08-02T03:05:12;13.88;;;2.92;;
42200;SDS011;27869;51.442;7.540;2022-08-02T03:07:39;16.60;;;3.17;;
42200;SDS011;27869;51.442;7.540;2022-08-02T03:10:07;13.00;;;3.42;;
42200;SDS011;27869;51.442;7.540;2022-08-02T03:12:35;10.10;;;2.92;;
42200;SDS011;27869;51.442;7.540;2022-08-02T03:15:04;11.52;;;3.30;;
42200;SDS011;27869;51.442;7.540;2022-08-02T03:17:37;14.65;;;3.28;;
42200;SDS011;27869;51.442;7.540;2022-08-02T03:20:07;11.63;;;2.80;;
42200;SDS011;27869;51.442;7.540;2022-08-02T03:22:37;13.73;;;3.00;;
42200;SDS011;27869;51.442;7.540;2022-08-02T03:25:05;9.55;;;2.50;;
42200;SDS011;27869;51.442;7.540;2022-08-02T03:27:33;14.48;;;2.85;;
42200;SDS011;27869;51.442;7.540;2022-08-02T03:30:00;11.27;;;2.95;;
42200;SDS011;27869;51.442;7.540;2022-08-02T03:32:27;15.65;;;3.17;;
42200;SDS011;27869;51.442;7.540;2022-08-02T03:34:54;13.57;;;2.90;;
42200;SDS011;27869;51.442;7.540;2022-08-02T03:37:21;10.27;;;2.70;;
42200;SDS011;27869;51.442;7.540;2022-08-02T03:39:50;11.15;;;2.88;;
42200;SDS011;27869;51.442;7.540;2022-08-02T03:42:18;13.65;;;3.33;;
42200;SDS011;27869;51.442;7.540;2022-08-02T03:44:46;14.05;;;2.85;;
42200;SDS011;27869;51.442;7.540;2022-08-02T03:47:14;15.85;;;3.20;;
42200;SDS011;27869;51.442;7.540;2022-08-02T03:49:42;10.55;;;3.03;;
42200;SDS011;27869;51.442;7.540;2022-08-02T03:52:10;9.45;;;2.85;;
42200;SDS011;27869;51.442;7.540;2022-08-02T03:54:37;9.10;;;3.22;;
42200;SDS011;27869;51.442;7.540;2022-08-02T03:57:05;11.68;;;3.63;;
42200;SDS011;27869;51.442;7.540;2022-08-02T03:59:38;10.55;;;3.28;;
42200;SDS011;27869;51.442;7.540;2022-08-02T04:02:06;10.70;;;2.85;;
42200;SDS011;27869;51.442;7.540;2022-08-02T04:04:33;9.43;;;3.00;;
42200;SDS011;27869;51.442;7.540;2022-08-02T04:07:00;9.35;;;2.90;;
42200;SDS011;27869;51.442;7.540;2022-08-02T04:09:27;11.63;;;3.05;;
42200;SDS011;27869;51.442;7.540;2022-08-02T04:11:54;14.60;;;3.60;;
42200;SDS011;27869;51.442;7.540;2022-08-02T04:14:22;8.80;;;2.88;;
42200;SDS011;27869;51.442;7.540;2022-08-02T04:16:50;10.23;;;3.15;;
42200;SDS011;27869;51.442;7.540;2022-08-02T04:19:20;9.02;;;2.97;;
42200;SDS011;27869;51.442;7.540;2022-08-02T04:21:53;11.73;;;3.33;;
42200;SDS011;27869;51.442;7.540;2022-08-02T04:24:22;10.77;;;2.75;;
42200;SDS011;27869;51.442;7.540;2022-08-02T04:26:53;11.45;;;3.45;;
42200;SDS011;27869;51.442;7.540;2022-08-02T04:31:50;10.32;;;3.15;;
42200;SDS011;27869;51.442;7.540;2022-08-02T04:34:17;9.93;;;3.17;;
42200;SDS011;27869;51.442;7.540;2022-08-02T04:36:44;11.73;;;3.50;;
42200;SDS011;27869;51.442;7.540;2022-08-02T04:39:12;10.20;;;3.40;;
42200;SDS011;27869;51.442;7.540;2022-08-02T04:41:39;12.10;;;3.70;;
42200;SDS011;27869;51.442;7.540;2022-08-02T04:44:07;9.07;;;3.25;;
42200;SDS011;27869;51.442;7.540;2022-08-02T04:46:35;11.93;;;3.50;;
42200;SDS011;27869;51.442;7.540;2022-08-02T04:49:03;12.55;;;3.60;;
42200;SDS011;27869;51.442;7.540;2022-08-02T04:51:32;13.20;;;3.08;;
42200;SDS011;27869;51.442;7.540;2022-08-02T04:54:00;11.95;;;3.40;;
42200;SDS011;27869;51.442;7.540;2022-08-02T04:56:27;12.63;;;3.92;;
42200;SDS011;27869;51.442;7.540;2022-08-02T04:58:54;12.80;;;3.58;;
42200;SDS011;27869;51.442;7.540;2022-08-02T05:01:21;13.57;;;3.60;;
42200;SDS011;27869;51.442;7.540;2022-08-02T05:03:49;12.52;;;3.75;;
42200;SDS011;27869;51.442;7.540;2022-08-02T05:06:16;10.45;;;3.63;;
42200;SDS011;27869;51.442;7.540;2022-08-02T05:08:44;13.73;;;4.05;;
42200;SDS011;27869;51.442;7.540;2022-08-02T05:11:11;13.52;;;4.32;;
42200;SDS011;27869;51.442;7.540;2022-08-02T05:13:39;14.27;;;4.45;;
42200;SDS011;27869;51.442;7.540;2022-08-02T05:16:07;13.73;;;4.93;;
42200;SDS011;27869;51.442;7.540;2022-08-02T05:18:33;17.10;;;4.93;;
42200;SDS011;27869;51.442;7.540;2022-08-02T05:21:02;15.60;;;4.10;;
42200;SDS011;27869;51.442;7.540;2022-08-02T05:23:29;18.95;;;4.00;;
42200;SDS011;27869;51.442;7.540;2022-08-02T05:25:56;11.32;;;3.75;;
42200;SDS011;27869;51.442;7.540;2022-08-02T05:28:23;16.98;;;3.58;;
42200;SDS011;27869;51.442;7.540;2022-08-02T05:30:50;12.95;;;3.92;;
42200;SDS011;27869;51.442;7.540;2022-08-02T05:33:17;13.50;;;4.13;;
42200;SDS011;27869;51.442;7.540;2022-08-02T05:35:44;13.43;;;4.30;;
42200;SDS011;27869;51.442;7.540;2022-08-02T05:38:12;13.48;;;4.18;;
42200;SDS011;27869;51.442;7.540;2022-08-02T05:40:39;12.98;;;4.28;;
42200;SDS011;27869;51.442;7.540;2022-08-02T05:43:10;19.58;;;5.15;;
42200;SDS011;27869;51.442;7.540;2022-08-02T05:45:38;12.85;;;4.03;;
42200;SDS011;27869;51.442;7.540;2022-08-02T05:48:05;14.40;;;4.60;;
42200;SDS011;27869;51.442;7.540;2022-08-02T05:50:33;14.43;;;4.60;;
42200;SDS011;27869;51.442;7.540;2022-08-02T05:53:04;14.70;;;3.80;;
42200;SDS011;27869;51.442;7.540;2022-08-02T05:55:55;14.02;;;4.10;;
42200;SDS011;27869;51.442;7.540;2022-08-02T05:58:29;15.07;;;4.55;;
42200;SDS011;27869;51.442;7.540;2022-08-02T06:01:04;11.75;;;4.22;;
42200;SDS011;27869;51.442;7.540;2022-08-02T06:03:34;12.95;;;4.70;;
42200;SDS011;27869;51.442;7.540;2022-08-02T06:06:05;11.10;;;4.80;;
42200;SDS011;27869;51.442;7.540;2022-08-02T06:08:38;15.93;;;5.20;;
42200;SDS011;27869;51.442;7.540;2022-08-02T06:11:11;15.95;;;5.80;;
42200;SDS011;27869;51.442;7.540;2022-08-02T06:13:40;13.20;;;5.18;;
42200;SDS011;27869;51.442;7.540;2022-08-02T06:16:08;15.30;;;5.93;;
42200;SDS011;27869;51.442;7.540;2022-08-02T06:18:35;17.10;;;5.57;;
42200;SDS011;27869;51.442;7.540;2022-08-02T06:21:03;19.65;;;6.38;;
42200;SDS011;27869;51.442;7.540;2022-08-02T06:23:32;21.88;;;6.28;;
42200;SDS011;27869;51.442;7.540;2022-08-02T06:26:02;16.02;;;6.45;;
42200;SDS011;27869;51.442;7.540;2022-08-02T06:28:33;15.25;;;6.28;;
42200;SDS011;27869;51.442;7.540;2022-08-02T06:31:03;19.00;;;6.28;;
42200;SDS011;27869;51.442;7.540;2022-08-02T06:33:31;17.30;;;6.20;;
42200;SDS011;27869;51.442;7.540;2022-08-02T06:36:00;14.80;;;6.32;;
42200;SDS011;27869;51.442;7.540;2022-08-02T06:38:31;15.88;;;5.68;;
42200;SDS011;27869;51.442;7.540;2022-08-02T06:41:04;14.77;;;5.70;;
42200;SDS011;27869;51.442;7.540;2022-08-02T06:43:37;14.25;;;5.55;;
42200;SDS011;27869;51.442;7.540;2022-08-02T06:46:10;15.60;;;5.05;;
42200;SDS011;27869;51.442;7.540;2022-08-02T06:48:37;16.50;;;6.57;;
42200;SDS011;27869;51.442;7.540;2022-08-02T06:51:04;16.40;;;6.47;;
42200;SDS011;27869;51.442;7.540;2022-08-02T06:53:31;13.73;;;5.57;;
42200;SDS011;27869;51.442;7.540;2022-08-02T06:55:58;13.45;;;5.30;;
42200;SDS011;27869;51.442;7.540;2022-08-02T06:58:25;15.77;;;5.30;;
42200;SDS011;27869;51.442;7.540;2022-08-02T07:00:53;13.55;;;4.75;;
42200;SDS011;27869;51.442;7.540;2022-08-02T07:03:20;16.42;;;5.00;;
42200;SDS011;27869;51.442;7.540;2022-08-02T07:05:49;15.05;;;4.82;;
42200;SDS011;27869;51.442;7.540;2022-08-02T07:08:17;15.13;;;5.25;;
42200;SDS011;27869;51.442;7.540;2022-08-02T07:10:44;15.20;;;5.63;;
42200;SDS011;27869;51.442;7.540;2022-08-02T07:13:11;15.63;;;4.80;;
42200;SDS011;27869;51.442;7.540;2022-08-02T07:15:38;11.40;;;4.40;;
42200;SDS011;27869;51.442;7.540;2022-08-02T07:18:07;17.63;;;4.53;;
42200;SDS011;27869;51.442;7.540;2022-08-02T07:20:38;12.80;;;4.80;;
42200;SDS011;27869;51.442;7.540;2022-08-02T07:23:05;13.27;;;4.15;;
42200;SDS011;27869;51.442;7.540;2022-08-02T07:25:32;12.15;;;4.00;;
42200;SDS011;27869;51.442;7.540;2022-08-02T07:27:59;12.38;;;3.97;;
42200;SDS011;27869;51.442;7.540;2022-08-02T07:30:26;13.35;;;4.18;;
42200;SDS011;27869;51.442;7.540;2022-08-02T07:32:54;13.73;;;4.43;;
42200;SDS011;27869;51.442;7.540;2022-08-02T07:35:22;11.77;;;4.35;;
42200;SDS011;27869;51.442;7.540;2022-08-02T07:37:49;13.63;;;3.78;;
42200;SDS011;27869;51.442;7.540;2022-08-02T07:40:16;12.88;;;3.85;;
42200;SDS011;27869;51.442;7.540;2022-08-02T07:42:43;11.13;;;3.55;;
42200;SDS011;27869;51.442;7.540;2022-08-02T07:45:13;9.18;;;3.28;;
42200;SDS011;27869;51.442;7.540;2022-08-02T07:47:40;11.38;;;3.80;;
42200;SDS011;27869;51.442;7.540;2022-08-02T07:50:08;13.52;;;3.58;;
42200;SDS011;27869;51.442;7.540;2022-08-02T07:52:37;10.82;;;3.55;;
42200;SDS011;27869;51.442;7.540;2022-08-02T07:55:05;11.63;;;3.40;;
42200;SDS011;27869;51.442;7.540;2022-08-02T07:57:32;13.88;;;3.20;;
42200;SDS011;27869;51.442;7.540;2022-08-02T07:59:59;13.30;;;3.13;;
42200;SDS011;27869;51.442;7.540;2022-08-02T08:02:26;12.35;;;3.20;;
42200;SDS011;27869;51.442;7.540;2022-08-02T08:04:53;9.73;;;3.10;;
42200;SDS011;27869;51.442;7.540;2022-08-02T08:07:20;10.15;;;2.85;;
42200;SDS011;27869;51.442;7.540;2022-08-02T08:09:48;9.05;;;2.83;;
42200;SDS011;27869;51.442;7.540;2022-08-02T08:12:15;11.48;;;2.65;;
42200;SDS011;27869;51.442;7.540;2022-08-02T08:14:42;10.85;;;2.40;;
42200;SDS011;27869;51.442;7.540;2022-08-02T08:17:09;13.45;;;2.80;;
42200;SDS011;27869;51.442;7.540;2022-08-02T08:19:37;11.35;;;2.70;;
42200;SDS011;27869;51.442;7.540;2022-08-02T08:22:04;9.65;;;2.28;;
42200;SDS011;27869;51.442;7.540;2022-08-02T08:24:31;13.38;;;2.53;;
42200;SDS011;27869;51.442;7.540;2022-08-02T08:26:59;8.65;;;2.20;;
42200;SDS011;27869;51.442;7.540;2022-08-02T08:29:26;10.48;;;2.30;;
42200;SDS011;27869;51.442;7.540;2022-08-02T08:31:53;8.88;;;2.30;;
42200;SDS011;27869;51.442;7.540;2022-08-02T08:34:20;10.93;;;2.33;;
42200;SDS011;27869;51.442;7.540;2022-08-02T08:36:48;11.10;;;2.22;;
42200;SDS011;27869;51.442;7.540;2022-08-02T08:39:15;8.55;;;2.13;;
42200;SDS011;27869;51.442;7.540;2022-08-02T08:41:42;11.65;;;2.55;;
42200;SDS011;27869;51.442;7.540;2022-08-02T08:44:10;10.18;;;2.40;;
42200;SDS011;27869;51.442;7.540;2022-08-02T08:46:40;6.95;;;1.83;;
42200;SDS011;27869;51.442;7.540;2022-08-02T08:49:11;7.60;;;2.08;;
42200;SDS011;27869;51.442;7.540;2022-08-02T08:51:43;10.15;;;1.77;;
42200;SDS011;27869;51.442;7.540;2022-08-02T08:54:11;6.80;;;1.60;;
42200;SDS011;27869;51.442;7.540;2022-08-02T08:56:41;10.82;;;1.88;;
42200;SDS011;27869;51.442;7.540;2022-08-02T08:59:08;6.22;;;1.50;;
42200;SDS011;27869;51.442;7.540;2022-08-02T09:01:37;6.25;;;1.77;;
42200;SDS011;27869;51.442;7.540;2022-08-02T09:04:04;6.85;;;1.75;;
42200;SDS011;27869;51.442;7.540;2022-08-02T09:06:31;4.53;;;1.40;;
42200;SDS011;27869;51.442;7.540;2022-08-02T09:08:58;5.10;;;1.40;;
42200;SDS011;27869;51.442;7.540;2022-08-02T09:11:25;4.60;;;1.60;;
42200;SDS011;27869;51.442;7.540;2022-08-02T09:13:53;9.25;;;1.50;;
42200;SDS011;27869;51.442;7.540;2022-08-02T09:16:33;4.47;;;1.50;;
42200;SDS011;27869;51.442;7.540;2022-08-02T09:19:15;5.65;;;1.67;;
42200;SDS011;27869;51.442;7.540;2022-08-02T09:21:44;3.67;;;1.42;;
42200;SDS011;27869;51.442;7.540;2022-08-02T09:24:15;7.82;;;1.90;;
42200;SDS011;27869;51.442;7.540;2022-08-02T09:26:43;3.50;;;1.40;;
42200;SDS011;27869;51.442;7.540;2022-08-02T09:29:11;6.75;;;1.63;;
42200;SDS011;27869;51.442;7.540;2022-08-02T09:31:40;5.97;;;2.35;;
42200;SDS011;27869;51.442;7.540;2022-08-02T09:34:08;6.03;;;1.65;;
42200;SDS011;27869;51.442;7.540;2022-08-02T09:36:39;5.60;;;1.63;;
42200;SDS011;27869;51.442;7.540;2022-08-02T09:39:08;7.90;;;2.30;;
42200;SDS011;27869;51.442;7.540;2022-08-02T09:41:36;6.55;;;1.63;;
42200;SDS011;27869;51.442;7.540;2022-08-02T09:44:06;7.28;;;1.75;;
42200;SDS011;27869;51.442;7.540;2022-08-02T09:46:34;6.18;;;1.65;;
42200;SDS011;27869;51.442;7.540;2022-08-02T09:49:04;5.28;;;1.60;;
42200;SDS011;27869;51.442;7.540;2022-08-02T09:51:33;5.80;;;1.70;;
42200;SDS011;27869;51.442;7.540;2022-08-02T09:54:02;6.40;;;1.80;;
42200;SDS011;27869;51.442;7.540;2022-08-02T09:56:38;6.50;;;1.90;;
42200;SDS011;27869;51.442;7.540;2022-08-02T09:59:08;5.45;;;1.60;;
42200;SDS011;27869;51.442;7.540;2022-08-02T10:01:36;6.35;;;1.80;;
42200;SDS011;27869;51.442;7.540;2022-08-02T10:04:05;4.88;;;1.70;;
42200;SDS011;27869;51.442;7.540;2022-08-02T10:06:35;8.43;;;1.90;;
42200;SDS011;27869;51.442;7.540;2022-08-02T10:09:03;6.97;;;1.92;;
42200;SDS011;27869;51.442;7.540;2022-08-02T10:11:30;6.78;;;1.70;;
42200;SDS011;27869;51.442;7.540;2022-08-02T10:16:25;5.68;;;1.80;;
42200;SDS011;27869;51.442;7.540;2022-08-02T10:18:53;7.22;;;2.08;;
42200;SDS011;27869;51.442;7.540;2022-08-02T10:21:27;7.38;;;1.90;;
42200;SDS011;27869;51.442;7.540;2022-08-02T10:23:59;6.65;;;1.75;;
42200;SDS011;27869;51.442;7.540;2022-08-02T10:26:31;9.48;;;2.03;;
42200;SDS011;27869;51.442;7.540;2022-08-02T10:28:59;6.70;;;1.80;;
42200;SDS011;27869;51.442;7.540;2022-08-02T10:31:27;7.00;;;1.95;;
42200;SDS011;27869;51.442;7.540;2022-08-02T10:34:00;6.00;;;1.75;;
42200;SDS011;27869;51.442;7.540;2022-08-02T10:36:30;5.95;;;1.75;;
42200;SDS011;27869;51.442;7.540;2022-08-02T10:38:59;10.25;;;2.05;;
42200;SDS011;27869;51.442;7.540;2022-08-02T10:44:23;7.55;;;2.00;;
42200;SDS011;27869;51.442;7.540;2022-08-02T10:46:52;7.78;;;2.05;;
42200;SDS011;27869;51.442;7.540;2022-08-02T10:49:52;4.63;;;2.00;;
42200;SDS011;27869;51.442;7.540;2022-08-02T10:52:20;10.55;;;2.00;;
42200;SDS011;27869;51.442;7.540;2022-08-02T10:54:49;9.85;;;1.95;;
42200;SDS011;27869;51.442;7.540;2022-08-02T10:57:21;7.13;;;1.90;;
42200;SDS011;27869;51.442;7.540;2022-08-02T10:59:51;8.57;;;2.20;;
42200;SDS011;27869;51.442;7.540;2022-08-02T11:02:35;9.73;;;2.13;;
42200;SDS011;27869;51.442;7.540;2022-08-02T11:05:08;5.57;;;1.92;;
42200;SDS011;27869;51.442;7.540;2022-08-02T11:07:40;5.93;;;1.90;;
42200;SDS011;27869;51.442;7.540;2022-08-02T11:10:27;7.93;;;1.92;;
42200;SDS011;27869;51.442;7.540;2022-08-02T11:13:03;7.05;;;2.13;;
42200;SDS011;27869;51.442;7.540;2022-08-02T11:23:48;6.25;;;1.80;;
42200;SDS011;27869;51.442;7.540;2022-08-02T11:29:10;8.10;;;1.90;;
42200;SDS011;27869;51.442;7.540;2022-08-02T11:31:38;6.68;;;2.03;;
42200;SDS011;27869;51.442;7.540;2022-08-02T11:34:07;6.68;;;2.00;;
42200;SDS011;27869;51.442;7.540;2022-08-02T11:39:14;6.55;;;1.90;;
42200;SDS011;27869;51.442;7.540;2022-08-02T11:41:46;6.47;;;2.17;;
42200;SDS011;27869;51.442;7.540;2022-08-02T11:44:14;5.35;;;1.42;;
42200;SDS011;27869;51.442;7.540;2022-08-02T11:46:42;6.70;;;2.47;;
42200;SDS011;27869;51.442;7.540;2022-08-02T11:49:12;6.68;;;2.08;;
42200;SDS011;27869;51.442;7.540;2022-08-02T11:51:55;5.78;;;1.85;;
42200;SDS011;27869;51.442;7.540;2022-08-02T11:54:25;8.75;;;2.25;;
42200;SDS011;27869;51.442;7.540;2022-08-02T11:56:53;7.95;;;2.17;;
42200;SDS011;27869;51.442;7.540;2022-08-02T11:59:20;7.60;;;2.13;;
42200;SDS011;27869;51.442;7.540;2022-08-02T12:01:47;7.47;;;2.40;;
42200;SDS011;27869;51.442;7.540;2022-08-02T12:04:15;11.93;;;2.42;;
42200;SDS011;27869;51.442;7.540;2022-08-02T12:06:52;8.43;;;2.25;;
42200;SDS011;27869;51.442;7.540;2022-08-02T12:09:21;6.43;;;2.10;;
42200;SDS011;27869;51.442;7.540;2022-08-02T12:11:50;6.60;;;2.10;;
42200;SDS011;27869;51.442;7.540;2022-08-02T12:14:17;9.27;;;2.40;;
42200;SDS011;27869;51.442;7.540;2022-08-02T12:16:44;8.25;;;2.20;;
42200;SDS011;27869;51.442;7.540;2022-08-02T12:19:30;13.02;;;2.42;;
42200;SDS011;27869;51.442;7.540;2022-08-02T12:22:09;9.10;;;2.30;;
42200;SDS011;27869;51.442;7.540;2022-08-02T12:24:42;6.07;;;2.10;;
42200;SDS011;27869;51.442;7.540;2022-08-02T12:27:26;9.48;;;2.47;;
42200;SDS011;27869;51.442;7.540;2022-08-02T12:29:58;6.88;;;2.25;;
42200;SDS011;27869;51.442;7.540;2022-08-02T12:32:31;8.57;;;2.28;;
42200;SDS011;27869;51.442;7.540;2022-08-02T12:35:02;7.15;;;2.10;;
42200;SDS011;27869;51.442;7.540;2022-08-02T12:37:36;8.35;;;2.40;;
42200;SDS011;27869;51.442;7.540;2022-08-02T12:40:16;6.28;;;2.20;;
42200;SDS011;27869;51.442;7.540;2022-08-02T12:42:47;8.77;;;2.40;;
42200;SDS011;27869;51.442;7.540;2022-08-02T12:45:14;9.85;;;2.50;;
42200;SDS011;27869;51.442;7.540;2022-08-02T12:47:45;8.15;;;2.40;;
42200;SDS011;27869;51.442;7.540;2022-08-02T12:50:15;7.95;;;2.42;;
42200;SDS011;27869;51.442;7.540;2022-08-02T12:52:45;9.95;;;2.70;;
42200;SDS011;27869;51.442;7.540;2022-08-02T12:55:14;8.70;;;2.10;;
42200;SDS011;27869;51.442;7.540;2022-08-02T12:57:49;7.50;;;2.25;;
42200;SDS011;27869;51.442;7.540;2022-08-02T13:00:24;10.52;;;2.10;;
42200;SDS011;27869;51.442;7.540;2022-08-02T13:02:52;7.72;;;2.40;;
42200;SDS011;27869;51.442;7.540;2022-08-02T13:05:19;9.30;;;2.50;;
42200;SDS011;27869;51.442;7.540;2022-08-02T13:07:47;7.18;;;2.28;;
42200;SDS011;27869;51.442;7.540;2022-08-02T13:10:15;8.85;;;2.25;;
42200;SDS011;27869;51.442;7.540;2022-08-02T13:12:42;7.70;;;2.47;;
42200;SDS011;27869;51.442;7.540;2022-08-02T13:15:09;9.18;;;2.28;;
42200;SDS011;27869;51.442;7.540;2022-08-02T13:17:36;7.63;;;2.40;;
42200;SDS011;27869;51.442;7.540;2022-08-02T13:20:04;8.35;;;2.60;;
42200;SDS011;27869;51.442;7.540;2022-08-02T13:22:32;9.75;;;2.65;;
42200;SDS011;27869;51.442;7.540;2022-08-02T13:25:00;9.93;;;2.45;;
42200;SDS011;27869;51.442;7.540;2022-08-02T13:29:55;6.40;;;2.03;;
42200;SDS011;27869;51.442;7.540;2022-08-02T13:32:24;7.60;;;2.40;;
42200;SDS011;27869;51.442;7.540;2022-08-02T13:34:52;10.18;;;2.40;;
42200;SDS011;27869;51.442;7.540;2022-08-02T13:37:18;6.63;;;2.25;;
42200;SDS011;27869;51.442;7.540;2022-08-02T13:39:46;8.90;;;2.50;;
42200;SDS011;27869;51.442;7.540;2022-08-02T13:42:15;9.02;;;2.65;;
42200;SDS011;27869;51.442;7.540;2022-08-02T13:44:42;8.48;;;2.55;;
42200;SDS011;27869;51.442;7.540;2022-08-02T13:47:09;5.40;;;2.00;;
42200;SDS011;27869;51.442;7.540;2022-08-02T13:49:36;8.02;;;2.17;;
42200;SDS011;27869;51.442;7.540;2022-08-02T13:52:03;8.18;;;2.30;;
42200;SDS011;27869;51.442;7.540;2022-08-02T13:54:31;6.15;;;2.10;;
42200;SDS011;27869;51.442;7.540;2022-08-02T13:56:58;6.57;;;2.13;;
42200;SDS011;27869;51.442;7.540;2022-08-02T13:59:29;6.95;;;2.20;;
42200;SDS011;27869;51.442;7.540;2022-08-02T14:01:56;5.90;;;1.73;;
42200;SDS011;27869;51.442;7.540;2022-08-02T14:04:23;7.57;;;2.40;;
42200;SDS011;27869;51.442;7.540;2022-08-02T14:06:51;5.35;;;2.13;;
42200;SDS011;27869;51.442;7.540;2022-08-02T14:09:18;7.38;;;2.22;;
42200;SDS011;27869;51.442;7.540;2022-08-02T14:11:45;7.90;;;2.30;;
42200;SDS011;27869;51.442;7.540;2022-08-02T14:14:13;6.30;;;2.13;;
42200;SDS011;27869;51.442;7.540;2022-08-02T14:16:41;6.85;;;2.20;;
42200;SDS011;27869;51.442;7.540;2022-08-02T14:19:08;6.40;;;1.92;;
42200;SDS011;27869;51.442;7.540;2022-08-02T14:21:35;16.05;;;2.30;;
42200;SDS011;27869;51.442;7.540;2022-08-02T14:24:02;7.32;;;2.10;;
42200;SDS011;27869;51.442;7.540;2022-08-02T14:26:29;10.05;;;2.30;;
42200;SDS011;27869;51.442;7.540;2022-08-02T14:28:56;7.88;;;2.30;;
42200;SDS011;27869;51.442;7.540;2022-08-02T14:31:26;6.68;;;2.20;;
42200;SDS011;27869;51.442;7.540;2022-08-02T14:33:54;9.77;;;2.55;;
42200;SDS011;27869;51.442;7.540;2022-08-02T14:36:21;6.30;;;2.08;;
42200;SDS011;27869;51.442;7.540;2022-08-02T14:38:48;6.90;;;2.30;;
42200;SDS011;27869;51.442;7.540;2022-08-02T14:41:15;10.38;;;2.25;;
42200;SDS011;27869;51.442;7.540;2022-08-02T14:43:42;6.28;;;2.17;;
42200;SDS011;27869;51.442;7.540;2022-08-02T14:46:26;7.72;;;2.33;;
42200;SDS011;27869;51.442;7.540;2022-08-02T14:48:55;8.10;;;2.15;;
42200;SDS011;27869;51.442;7.540;2022-08-02T14:51:21;7.65;;;1.90;;
42200;SDS011;27869;51.442;7.540;2022-08-02T14:53:48;12.55;;;2.55;;
42200;SDS011;27869;51.442;7.540;2022-08-02T14:56:15;7.13;;;2.00;;
42200;SDS011;27869;51.442;7.540;2022-08-02T14:58:42;5.70;;;1.75;;
42200;SDS011;27869;51.442;7.540;2022-08-02T15:01:09;6.68;;;2.10;;
42200;SDS011;27869;51.442;7.540;2022-08-02T15:03:36;5.53;;;2.13;;
42200;SDS011;27869;51.442;7.540;2022-08-02T15:06:04;9.82;;;2.03;;
42200;SDS011;27869;51.442;7.540;2022-08-02T15:08:31;7.75;;;2.10;;
42200;SDS011;27869;51.442;7.540;2022-08-02T15:10:58;4.88;;;1.80;;
42200;SDS011;27869;51.442;7.540;2022-08-02T15:13:25;7.70;;;1.98;;
42200;SDS011;27869;51.442;7.540;2022-08-02T15:15:52;9.32;;;2.10;;